Terminal Aerodrome Forecast
Issued by NWS

Home | Current Version | Previous Version | Text Only | Print | Product List | Glossary On
Versions: 1 2 3 4 5 6 7 8 9 10 11 12
000
FTUS44 KCRP 311129
TAFALI
TAF
KALI 311129Z 3112/0112 14005KT P6SM FEW020 BKN200
     FM311500 15008KT P6SM SCT025 SCT035
      TEMPO 3115/3117 BKN024
     FM311800 13012G17KT P6SM VCTS SCT040CB SCT250
      TEMPO 3118/3122 VRB15G25KT 4SM TSRA BR BKN040CB
     FM010000 14008KT P6SM SCT250=

USA.gov is the U.S. government's official web portal to all federal, state and local government web resources and services.